createdAt,value
2023-01-06T11:57:48.975Z,15.00
2023-01-06T12:00:21.341Z,15.00
2023-01-06T12:03:09.190Z,15.00
2023-01-06T12:05:47.818Z,15.00
2023-01-06T12:08:22.313Z,15.00
2023-01-06T12:11:01.052Z,14.90
2023-01-06T12:13:33.450Z,14.90
2023-01-06T12:16:05.807Z,14.80
2023-01-06T12:18:37.577Z,14.80
2023-01-06T12:21:07.224Z,14.80
2023-01-06T12:23:42.060Z,14.80
2023-01-06T12:26:16.760Z,14.80
2023-01-06T12:28:48.195Z,14.70
2023-01-06T12:31:29.588Z,14.70
2023-01-06T12:34:05.225Z,14.70
2023-01-06T12:36:40.527Z,14.70
2023-01-06T12:39:29.855Z,14.70
2023-01-06T12:42:05.317Z,14.60
2023-01-06T12:44:54.430Z,14.70
2023-01-06T12:47:29.494Z,14.70
2023-01-06T12:50:04.332Z,14.60
2023-01-06T12:52:50.112Z,14.60
2023-01-06T12:55:23.249Z,14.60
2023-01-06T21:44:13.110Z,14.90
2023-01-06T21:46:42.441Z,14.90
2023-01-06T21:49:11.748Z,15.00
2023-01-06T21:51:42.120Z,15.10
2023-01-06T21:54:11.585Z,15.10
2023-01-06T21:56:40.931Z,15.20
2023-01-06T21:59:10.349Z,15.20
2023-01-06T22:01:39.974Z,15.30
2023-01-06T22:04:09.396Z,15.20
2023-01-06T22:06:40.185Z,15.30
2023-01-06T22:09:11.314Z,15.40
2023-01-06T22:11:41.881Z,15.60
2023-01-06T22:14:12.077Z,15.80
2023-01-06T22:16:41.754Z,16.10
2023-01-06T22:19:12.406Z,16.30
2023-01-06T22:21:43.733Z,16.40
2023-01-06T22:24:14.480Z,16.70
2023-01-06T22:26:43.877Z,16.90
2023-01-06T22:29:13.224Z,17.20
2023-01-06T22:31:42.577Z,17.30
2023-01-06T22:34:12.069Z,17.50
2023-01-06T22:36:41.392Z,17.70
2023-01-06T22:39:11.908Z,17.80
2023-01-06T22:41:41.290Z,17.80
2023-01-06T23:08:36.521Z,18.60
2023-01-06T23:11:11.484Z,18.80
2023-01-06T23:13:48.389Z,19.00
2023-01-06T23:16:24.151Z,18.90
2023-01-06T23:18:53.790Z,18.70
2023-01-06T23:21:27.019Z,18.50
2023-01-06T23:23:57.938Z,18.40
2023-01-06T23:26:29.649Z,18.40
2023-01-06T23:29:00.016Z,18.20
2023-01-06T23:31:30.913Z,18.40
2023-01-06T23:34:03.080Z,18.30
2023-01-06T23:36:32.911Z,18.30
2023-01-06T23:39:05.672Z,18.30
2023-01-06T23:41:36.616Z,18.50
2023-01-06T23:44:06.297Z,18.80
2023-01-06T23:46:40.550Z,19.10
2023-01-06T23:49:10.651Z,19.20
2023-01-06T23:51:42.942Z,19.30
2023-01-06T23:54:15.673Z,19.10
2023-01-06T23:56:49.320Z,19.30
2023-01-06T23:59:36.474Z,19.30
